Terminal Aerodrome Forecast
Issued by NWS

Home | Current Version | Previous Version | Text Only | Print | Product List | Glossary On
Versions: 1 2 3 4 5 6 7 8 9 10 11 12 13 14 15 16
720
FTUS44 KEPZ 211724
TAFLRU
TAF
KLRU 211724Z 2118/2218 17006KT P6SM VCTS SCT050CB BKN120
      TEMPO 2122/2202 VRB20G35KT TS BKN050CB
     FM220400 24005KT P6SM FEW050 OVC120
     FM221200 21004KT P6SM VCSH SCT050 OVC100=

USA.gov is the U.S. government's official web portal to all federal, state and local government web resources and services.